Arklow Rock — PBZM — position and weather

sailwx.info

Track history (hours):
 
Tides and Currents Weather Stations Pressure Air Temp Water Temp Dewpoint Dewpoint Depression Visibility Wind Speed Wind Dir Waves Ship Positions

Arklow Rock

Last reported at 2015-May-04 06:32 UTC. Time now 2015-May-04 10:01 UTC.
Position N 51°20' E 002°34'.

Length 90 m; draft 5.8 m.

Type: Cargo ship. MMSI: 246002000.

Date/timePositionNaut miles runAvg speedWind from/ knotsBaromVisibWave heightAir tempDewpointWater temp
2015-May-04 06:32N 51°20' E 002°34'0 0.2
2015-May-04 05:26N 51°21' E 002°35'0 0.0
2015-May-04 04:32N 51°21' E 002°35'0 0.0
2015-May-04 03:32N 51°21' E 002°35'0 0.0
2015-May-04 02:32N 51°21' E 002°35'0 0.0
2015-May-04 01:26N 51°21' E 002°35'0 0.1
2015-May-04 00:23N 51°21' E 002°35'0 0.0
2015-May-03 22:29N 51°20' E 002°35'0 0.1
2015-May-03 20:17N 51°20' E 002°34'0 0.0
2015-May-03 19:20N 51°20' E 002°34'0 0.2
2015-May-03 18:05N 51°21' E 002°35'0 0.0
2015-May-03 17:23N 51°20' E 002°35'0 0.0
2015-May-03 16:20N 51°20' E 002°35'0 0.0
2015-May-03 15:29N 51°20' E 002°35'0 0.0
2015-May-03 14:17N 51°20' E 002°35'0 0.2
2015-May-03 13:21N 51°20' E 002°34'0 0.1
2015-May-03 12:26N 51°20' E 002°34'0 0.0
2015-May-03 10:23N 51°20' E 002°34'3 4.1
2015-May-03 09:34N 51°22' E 002°29'13 9.5
2015-May-03 08:09N 51°15' E 002°11'5 9.2
2015-May-03 07:34N 51°12' E 002°03'9 8.5
2015-May-03 06:33N 51°08' E 001°51'9 8.5
2015-May-03 05:33N 51°03' E 001°41'9 9.1
2015-May-03 04:32N 50°55' E 001°32'  
Track history (hours):
 
Tides and Currents Weather Stations Pressure Air Temp Water Temp Dewpoint Dewpoint Depression Visibility Wind Speed Wind Dir Waves Ship Positions

Arklow Rock

Last reported at 2015-May-04 06:32 UTC. Time now 2015-May-04 10:01 UTC.
Position N 51°20' E 002°34'.

Length 90 m; draft 5.8 m.

Type: Cargo ship. MMSI: 246002000.

Date/timePositionNaut miles runAvg speedWind from/ knotsBaromVisibWave heightAir tempDewpointWater temp
2015-May-04 06:32N 51°20' E 002°34'0 0.2
2015-May-04 05:26N 51°21' E 002°35'0 0.0
2015-May-04 04:32N 51°21' E 002°35'0 0.0
2015-May-04 03:32N 51°21' E 002°35'0 0.0
2015-May-04 02:32N 51°21' E 002°35'0 0.0
2015-May-04 01:26N 51°21' E 002°35'0 0.1
2015-May-04 00:23N 51°21' E 002°35'0 0.0
2015-May-03 22:29N 51°20' E 002°35'0 0.1
2015-May-03 20:17N 51°20' E 002°34'0 0.0
2015-May-03 19:20N 51°20' E 002°34'0 0.2
2015-May-03 18:05N 51°21' E 002°35'0 0.0
2015-May-03 17:23N 51°20' E 002°35'0 0.0
2015-May-03 16:20N 51°20' E 002°35'0 0.0
2015-May-03 15:29N 51°20' E 002°35'0 0.0
2015-May-03 14:17N 51°20' E 002°35'0 0.2
2015-May-03 13:21N 51°20' E 002°34'0 0.1
2015-May-03 12:26N 51°20' E 002°34'0 0.0
2015-May-03 10:23N 51°20' E 002°34'3 4.1
2015-May-03 09:34N 51°22' E 002°29'13 9.5
2015-May-03 08:09N 51°15' E 002°11'5 9.2
2015-May-03 07:34N 51°12' E 002°03'9 8.5
2015-May-03 06:33N 51°08' E 001°51'9 8.5
2015-May-03 05:33N 51°03' E 001°41'9 9.1
2015-May-03 04:32N 50°55' E 001°32'  

Dump ship's entire track history